createdAt,value
2018-01-17T00:00:35.857Z,9.77
2018-01-17T00:01:39.122Z,10.20
2018-01-17T00:02:41.736Z,9.60
2018-01-17T00:03:44.317Z,11.57
2018-01-17T00:04:46.822Z,10.23
2018-01-17T00:05:49.315Z,10.00
2018-01-17T00:06:52.577Z,10.48
2018-01-17T00:07:55.063Z,8.05
2018-01-17T00:08:57.556Z,9.05
2018-01-17T00:10:00.841Z,9.65
2018-01-17T00:11:04.103Z,9.30
2018-01-17T00:12:06.584Z,8.75
2018-01-17T00:13:09.116Z,10.40
2018-01-17T00:14:11.616Z,10.68
2018-01-17T00:15:14.134Z,8.43
2018-01-17T00:16:16.623Z,9.20
2018-01-17T00:17:19.119Z,9.30
2018-01-17T00:18:21.598Z,8.35
2018-01-17T00:19:25.595Z,9.38
2018-01-17T00:20:28.120Z,9.07
2018-01-17T00:21:30.648Z,9.05
2018-01-17T00:22:42.094Z,8.70
2018-01-17T00:23:44.615Z,9.98
2018-01-17T00:24:47.095Z,9.45
2018-01-17T00:25:50.358Z,8.98
2018-01-17T00:26:52.973Z,8.15
2018-01-17T00:27:55.480Z,8.35
2018-01-17T00:28:57.983Z,7.55
2018-01-17T00:30:00.472Z,8.68
2018-01-17T00:31:03.733Z,8.13
2018-01-17T00:32:06.347Z,7.68
2018-01-17T00:33:08.835Z,7.18
2018-01-17T00:34:11.322Z,7.72
2018-01-17T00:35:13.807Z,7.03
2018-01-17T00:36:16.318Z,7.18
2018-01-17T00:37:19.567Z,7.40
2018-01-17T00:38:22.078Z,7.07
2018-01-17T00:39:25.194Z,6.40
2018-01-17T00:40:27.683Z,6.10
2018-01-17T00:41:30.184Z,6.25
2018-01-17T00:42:33.455Z,6.57
2018-01-17T00:43:36.893Z,5.25
2018-01-17T00:44:39.390Z,6.10
2018-01-17T00:45:41.890Z,6.85
2018-01-17T00:46:44.391Z,7.80
2018-01-17T00:47:46.886Z,5.55
2018-01-17T00:48:49.362Z,6.18
2018-01-17T00:49:51.850Z,5.40
2018-01-17T00:50:54.331Z,5.50
2018-01-17T00:51:56.947Z,4.70
2018-01-17T00:52:59.439Z,5.72
2018-01-17T00:54:01.929Z,5.32
2018-01-17T00:55:04.443Z,5.05
2018-01-17T00:56:07.700Z,5.07
2018-01-17T00:57:10.216Z,5.43
2018-01-17T00:58:12.703Z,6.18
2018-01-17T00:59:15.197Z,5.10
2018-01-17T01:00:17.686Z,5.32
2018-01-17T01:01:20.173Z,5.12
2018-01-17T01:02:23.450Z,4.80
2018-01-17T01:03:26.061Z,5.00
2018-01-17T01:04:28.571Z,5.35
2018-01-17T01:05:31.084Z,5.78
2018-01-17T01:06:34.330Z,4.62
2018-01-17T01:07:36.860Z,4.45
2018-01-17T01:08:39.364Z,5.95
2018-01-17T01:09:42.856Z,4.95
2018-01-17T01:10:45.338Z,4.15
2018-01-17T01:11:47.874Z,4.95
2018-01-17T01:12:50.366Z,4.45
2018-01-17T01:13:52.880Z,4.75
2018-01-17T01:14:56.166Z,4.65
2018-01-17T01:15:59.415Z,3.42
2018-01-17T01:17:02.467Z,4.95
2018-01-17T01:18:04.968Z,4.87
2018-01-17T01:19:07.464Z,4.93
2018-01-17T01:20:10.024Z,4.45
2018-01-17T01:21:12.535Z,4.80
2018-01-17T01:22:15.036Z,4.97
2018-01-17T01:23:17.540Z,4.10
2018-01-17T01:24:20.051Z,5.70
2018-01-17T01:25:22.545Z,4.53
2018-01-17T01:26:25.025Z,4.45
2018-01-17T01:27:27.521Z,3.87
2018-01-17T01:28:30.030Z,3.97
2018-01-17T01:29:32.547Z,5.15
2018-01-17T01:30:35.027Z,4.12
2018-01-17T01:31:37.523Z,4.25
2018-01-17T01:32:40.785Z,3.75
2018-01-17T01:33:44.828Z,5.12
2018-01-17T01:34:47.355Z,4.47
2018-01-17T01:35:49.871Z,3.47
2018-01-17T01:36:52.440Z,4.65
2018-01-17T01:37:54.944Z,4.75
2018-01-17T01:38:57.587Z,4.30
2018-01-17T01:40:00.087Z,4.05
2018-01-17T01:41:02.598Z,4.68
2018-01-17T01:42:05.094Z,3.62
2018-01-17T01:43:07.600Z,5.05
2018-01-17T01:44:10.100Z,4.60
2018-01-17T01:45:12.602Z,4.95
2018-01-17T01:46:15.096Z,5.07
2018-01-17T01:47:17.580Z,3.65
2018-01-17T01:48:20.075Z,4.07
2018-01-17T01:49:24.078Z,5.22
2018-01-17T01:50:26.604Z,4.35
2018-01-17T01:51:29.088Z,4.93
2018-01-17T01:52:31.591Z,4.15
2018-01-17T01:53:34.074Z,3.90
2018-01-17T01:54:37.356Z,4.85
2018-01-17T01:55:39.971Z,4.95
2018-01-17T01:56:42.461Z,4.15
2018-01-17T01:57:44.959Z,4.78
2018-01-17T01:58:48.968Z,4.45
2018-01-17T01:59:51.455Z,7.28
2018-01-17T02:00:54.776Z,4.30
2018-01-17T02:01:57.258Z,5.53
2018-01-17T02:02:59.741Z,2.65
2018-01-17T02:04:02.222Z,2.00
2018-01-17T02:05:04.711Z,2.40
2018-01-17T02:06:07.202Z,2.58
2018-01-17T02:07:10.468Z,2.90
2018-01-17T02:08:13.073Z,2.70
2018-01-17T02:09:15.567Z,2.80
2018-01-17T02:10:18.058Z,3.50
2018-01-17T02:11:20.576Z,3.83
2018-01-17T02:12:23.059Z,3.80
2018-01-17T02:13:25.549Z,3.30
2018-01-17T02:14:28.860Z,4.55
2018-01-17T02:15:32.162Z,3.87
2018-01-17T02:16:35.480Z,4.35
2018-01-17T02:17:38.733Z,4.40
2018-01-17T02:18:41.431Z,5.00
2018-01-17T02:19:43.940Z,5.15
2018-01-17T02:20:46.456Z,4.50
2018-01-17T02:21:48.958Z,4.85
2018-01-17T02:22:51.555Z,4.70
2018-01-17T02:23:54.038Z,4.62
2018-01-17T02:24:56.577Z,4.80
2018-01-17T02:25:59.050Z,4.28
2018-01-17T02:27:02.322Z,5.85
2018-01-17T02:28:04.820Z,4.82
2018-01-17T02:29:07.385Z,5.80
2018-01-17T02:30:09.934Z,5.60
2018-01-17T02:31:18.886Z,6.07
2018-01-17T02:32:21.389Z,5.40
2018-01-17T02:33:23.873Z,7.68
2018-01-17T02:34:26.372Z,6.62
2018-01-17T02:35:29.640Z,6.30
2018-01-17T02:36:32.125Z,5.45
2018-01-17T02:37:34.637Z,6.43
2018-01-17T02:38:37.125Z,6.18
2018-01-17T02:39:51.653Z,6.20
2018-01-17T02:40:54.148Z,6.78
2018-01-17T02:41:56.640Z,6.00
2018-01-17T02:42:59.171Z,7.47
2018-01-17T02:44:01.663Z,6.20
2018-01-17T02:45:04.168Z,6.28
2018-01-17T02:46:07.487Z,5.72
2018-01-17T02:47:09.978Z,5.97
2018-01-17T02:48:12.514Z,6.00
2018-01-17T02:49:15.749Z,5.93
2018-01-17T02:50:18.241Z,6.20
2018-01-17T02:51:20.740Z,5.57
2018-01-17T02:52:23.988Z,5.40
2018-01-17T02:53:26.617Z,5.32
2018-01-17T02:54:29.108Z,6.37
2018-01-17T02:55:31.626Z,5.82
2018-01-17T02:56:34.122Z,5.50
2018-01-17T02:57:36.611Z,5.22
2018-01-17T02:58:39.124Z,5.75
2018-01-17T02:59:42.456Z,5.37
2018-01-17T03:00:44.938Z,5.35
2018-01-17T03:01:47.476Z,5.05
2018-01-17T03:02:50.065Z,5.43
2018-01-17T03:03:52.584Z,5.65
2018-01-17T03:04:55.116Z,4.97
2018-01-17T03:05:57.607Z,5.82
2018-01-17T03:07:00.112Z,4.95
2018-01-17T03:08:02.595Z,4.68
2018-01-17T03:09:05.870Z,5.50
2018-01-17T03:10:08.377Z,5.12
2018-01-17T03:11:10.952Z,5.32
2018-01-17T03:12:13.522Z,4.90
2018-01-17T03:13:16.090Z,5.45
2018-01-17T03:14:18.592Z,5.60
2018-01-17T03:15:21.083Z,5.18
2018-01-17T03:16:23.568Z,5.12
2018-01-17T03:17:26.085Z,5.25
2018-01-17T03:18:30.382Z,5.50
2018-01-17T03:19:32.954Z,5.85
2018-01-17T03:20:35.447Z,5.72
2018-01-17T03:21:37.993Z,5.87
2018-01-17T03:22:40.567Z,5.85
2018-01-17T03:23:43.054Z,5.45
2018-01-17T03:24:45.567Z,5.60
2018-01-17T03:25:48.083Z,5.15
2018-01-17T03:26:50.566Z,5.40
2018-01-17T03:27:53.055Z,4.85
2018-01-17T03:28:55.580Z,5.53
2018-01-17T03:29:58.876Z,4.60
2018-01-17T03:31:01.376Z,4.80
2018-01-17T03:32:03.920Z,5.30
2018-01-17T03:33:06.489Z,5.20
2018-01-17T03:34:09.060Z,5.78
2018-01-17T03:35:11.585Z,5.82
2018-01-17T03:36:15.588Z,5.85
2018-01-17T03:37:18.075Z,5.20
2018-01-17T03:38:20.574Z,5.53
2018-01-17T03:39:23.073Z,5.07
2018-01-17T03:40:25.595Z,5.10
2018-01-17T03:41:28.847Z,6.03
2018-01-17T03:42:31.366Z,6.07
2018-01-17T03:43:34.629Z,5.20
2018-01-17T03:44:37.111Z,5.15
2018-01-17T03:45:40.420Z,4.95
2018-01-17T03:46:42.898Z,5.20
2018-01-17T03:47:45.402Z,5.78
2018-01-17T03:48:47.880Z,4.90
2018-01-17T03:49:51.149Z,5.40
2018-01-17T03:50:53.641Z,6.25
2018-01-17T03:51:56.983Z,5.90
2018-01-17T03:52:59.547Z,5.35
2018-01-17T03:54:02.071Z,5.05
2018-01-17T03:55:04.571Z,5.68
2018-01-17T03:56:07.820Z,7.00
2018-01-17T03:57:10.352Z,6.43
2018-01-17T03:58:12.838Z,6.00
2018-01-17T03:59:15.326Z,6.35
2018-01-17T04:00:17.807Z,6.22
2018-01-17T04:01:20.305Z,7.05
2018-01-17T04:02:23.596Z,6.10
2018-01-17T04:03:26.856Z,7.30
2018-01-17T04:04:29.344Z,7.65
2018-01-17T04:05:31.835Z,6.90
2018-01-17T04:06:35.084Z,7.32
2018-01-17T04:07:37.700Z,7.50
2018-01-17T04:08:40.183Z,7.07
2018-01-17T04:09:42.668Z,8.23
2018-01-17T04:10:45.162Z,7.68
2018-01-17T04:11:47.675Z,8.00
2018-01-17T04:12:50.206Z,7.97
2018-01-17T04:13:54.208Z,7.00
2018-01-17T04:14:56.700Z,7.90
2018-01-17T04:15:59.955Z,7.60
2018-01-17T04:17:02.449Z,9.80
2018-01-17T04:18:06.489Z,8.32
2018-01-17T04:19:08.983Z,7.95
2018-01-17T04:20:11.530Z,7.78
2018-01-17T04:21:14.100Z,7.45
2018-01-17T04:22:16.592Z,8.23
2018-01-17T04:23:19.088Z,8.05
2018-01-17T04:24:21.578Z,7.95
2018-01-17T04:25:24.068Z,7.90
2018-01-17T04:26:27.321Z,8.13
2018-01-17T04:27:30.763Z,8.60
2018-01-17T04:28:33.263Z,7.35
2018-01-17T04:29:35.767Z,8.57
2018-01-17T04:30:39.027Z,10.05
2018-01-17T04:31:41.522Z,9.23
2018-01-17T04:32:44.011Z,9.40
2018-01-17T04:33:47.271Z,9.20
2018-01-17T04:34:49.757Z,9.05
2018-01-17T04:35:52.252Z,9.45
2018-01-17T04:36:54.734Z,8.38
2018-01-17T04:37:57.230Z,8.95
2018-01-17T04:38:59.818Z,8.93
2018-01-17T04:40:02.303Z,8.10
2018-01-17T04:41:04.809Z,8.30
2018-01-17T04:42:07.306Z,9.10
2018-01-17T04:43:09.811Z,8.95
2018-01-17T04:44:12.317Z,9.60
2018-01-17T04:45:14.828Z,10.20
2018-01-17T04:46:17.328Z,9.48
2018-01-17T04:47:19.814Z,9.27
2018-01-17T04:48:23.088Z,9.70
2018-01-17T04:49:26.359Z,9.00
2018-01-17T04:50:29.691Z,8.43
2018-01-17T04:51:32.197Z,8.75
2018-01-17T04:52:34.687Z,8.93
2018-01-17T04:53:37.180Z,11.15
2018-01-17T04:54:40.492Z,9.55
2018-01-17T04:55:43.738Z,9.32
2018-01-17T04:56:46.238Z,8.93
2018-01-17T04:57:49.493Z,8.48
2018-01-17T04:58:52.012Z,8.75
2018-01-17T04:59:54.524Z,8.15
2018-01-17T05:00:57.016Z,9.23
2018-01-17T05:01:59.501Z,8.07
2018-01-17T05:03:02.772Z,8.65
2018-01-17T05:04:05.277Z,8.85
2018-01-17T05:05:07.755Z,8.63
2018-01-17T05:06:10.254Z,8.73
2018-01-17T05:07:12.741Z,9.15
2018-01-17T05:08:15.234Z,9.00
2018-01-17T05:10:30.265Z,8.23
2018-01-17T05:11:32.786Z,9.88
2018-01-17T05:12:36.149Z,8.73
2018-01-17T05:13:38.639Z,8.85
2018-01-17T05:14:41.896Z,9.90
2018-01-17T05:15:44.383Z,9.30
2018-01-17T05:16:46.886Z,9.07
2018-01-17T05:17:49.380Z,9.57
2018-01-17T05:18:51.863Z,10.07
2018-01-17T05:19:54.405Z,11.45
2018-01-17T05:20:56.897Z,9.98
2018-01-17T05:21:59.384Z,9.90
2018-01-17T05:23:01.901Z,10.40
2018-01-17T05:24:04.407Z,11.23
2018-01-17T05:25:07.705Z,11.40
2018-01-17T05:26:10.255Z,10.90
2018-01-17T05:27:13.516Z,12.90
2018-01-17T05:28:16.027Z,11.80
2018-01-17T05:29:19.287Z,11.73
2018-01-17T05:30:22.612Z,10.20
2018-01-17T05:31:25.123Z,11.05
2018-01-17T05:32:27.657Z,9.90
2018-01-17T05:33:30.162Z,11.35
2018-01-17T05:34:32.658Z,10.77
2018-01-17T05:35:35.147Z,10.90
2018-01-17T05:36:38.403Z,12.43
2018-01-17T05:37:40.923Z,11.85
2018-01-17T05:38:43.446Z,10.90
2018-01-17T05:39:45.955Z,9.63
2018-01-17T05:40:48.461Z,11.77
2018-01-17T05:41:50.947Z,11.23
2018-01-17T05:42:53.436Z,12.35
2018-01-17T05:43:55.958Z,11.63
2018-01-17T05:44:58.453Z,11.98
2018-01-17T05:46:00.947Z,11.30
2018-01-17T05:47:03.489Z,11.00
2018-01-17T05:48:05.997Z,11.45
2018-01-17T05:49:09.286Z,11.55
2018-01-17T05:50:11.884Z,11.02
2018-01-17T05:51:14.378Z,13.00
2018-01-17T05:52:16.895Z,11.48
2018-01-17T05:53:19.386Z,12.45
2018-01-17T05:54:21.891Z,11.95
2018-01-17T05:55:24.396Z,11.80
2018-01-17T05:56:26.919Z,11.50
2018-01-17T05:57:29.419Z,10.57
2018-01-17T05:58:31.926Z,10.88
2018-01-17T05:59:35.197Z,10.55
2018-01-17T06:00:38.467Z,9.23
2018-01-17T06:01:40.962Z,10.40
2018-01-17T06:02:43.450Z,11.15
2018-01-17T06:03:46.703Z,10.63
2018-01-17T06:04:49.322Z,10.70
2018-01-17T06:05:51.831Z,10.68
2018-01-17T06:06:54.321Z,10.13
2018-01-17T06:07:56.828Z,10.52
2018-01-17T06:09:00.083Z,8.65
2018-01-17T06:10:03.357Z,10.13
2018-01-17T06:11:05.899Z,9.30
2018-01-17T06:12:08.391Z,9.05
2018-01-17T06:13:10.972Z,8.75
2018-01-17T06:14:13.532Z,7.75
2018-01-17T06:15:16.002Z,8.52
2018-01-17T06:16:18.517Z,8.43
2018-01-17T06:17:20.998Z,8.15
2018-01-17T06:18:23.880Z,7.72
2018-01-17T06:19:26.355Z,8.43
2018-01-17T06:20:28.828Z,6.90
2018-01-17T06:21:31.315Z,6.20
2018-01-17T06:22:33.798Z,5.85
2018-01-17T06:23:36.298Z,6.72
2018-01-17T06:24:39.549Z,5.40
2018-01-17T06:25:42.046Z,4.82
2018-01-17T06:26:44.539Z,5.62
2018-01-17T06:27:47.793Z,4.85
2018-01-17T06:28:50.277Z,5.60
2018-01-17T06:29:52.767Z,5.20
2018-01-17T06:30:56.012Z,5.60
2018-01-17T06:31:58.504Z,5.20
2018-01-17T06:33:00.980Z,5.32
2018-01-17T06:34:04.528Z,4.87
2018-01-17T06:35:07.027Z,4.82
2018-01-17T06:36:09.585Z,3.90
2018-01-17T06:37:12.089Z,4.93
2018-01-17T06:38:14.569Z,3.62
2018-01-17T06:39:17.812Z,4.32
2018-01-17T06:40:20.351Z,3.97
2018-01-17T06:41:22.781Z,3.85
2018-01-17T06:42:25.293Z,3.58
2018-01-17T06:43:27.752Z,3.80
2018-01-17T06:44:30.231Z,3.80
2018-01-17T06:45:32.711Z,3.80
2018-01-17T06:46:35.199Z,3.30
2018-01-17T06:47:37.842Z,2.97
2018-01-17T06:48:40.362Z,3.33
2018-01-17T06:49:42.920Z,4.65
2018-01-17T06:50:45.396Z,4.97
2018-01-17T06:51:47.874Z,4.22
2018-01-17T06:52:50.357Z,3.58
2018-01-17T06:53:52.838Z,3.87
2018-01-17T06:54:55.309Z,3.80
2018-01-17T06:55:57.808Z,4.28
2018-01-17T06:57:00.288Z,3.87
2018-01-17T06:58:02.776Z,4.10
2018-01-17T06:59:05.248Z,3.87
2018-01-17T07:00:07.744Z,5.03
2018-01-17T07:01:11.222Z,4.80
2018-01-17T07:02:14.589Z,4.18
2018-01-17T07:03:17.078Z,4.60
2018-01-17T07:04:19.555Z,3.53
2018-01-17T07:05:22.009Z,4.10
2018-01-17T07:06:25.280Z,4.75
2018-01-17T07:07:28.180Z,5.03
2018-01-17T07:08:30.671Z,3.97
2018-01-17T07:09:33.156Z,5.15
2018-01-17T07:10:35.652Z,5.55
2018-01-17T07:11:38.202Z,5.35
2018-01-17T07:12:41.527Z,5.30
2018-01-17T07:13:44.856Z,4.97
2018-01-17T07:14:47.332Z,5.40
2018-01-17T07:15:49.804Z,5.03
2018-01-17T07:16:52.282Z,5.00
2018-01-17T07:17:54.747Z,4.45
2018-01-17T07:18:57.251Z,5.75
2018-01-17T07:19:59.733Z,5.18
2018-01-17T07:21:02.210Z,5.90
2018-01-17T07:22:05.149Z,5.50
2018-01-17T07:23:07.619Z,5.20
2018-01-17T07:24:10.263Z,5.97
2018-01-17T07:25:13.122Z,6.00
2018-01-17T07:26:15.610Z,6.18
2018-01-17T07:27:18.077Z,5.07
2018-01-17T07:28:20.555Z,5.05
2018-01-17T07:29:23.031Z,6.10
2018-01-17T07:30:25.540Z,6.03
2018-01-17T07:31:29.644Z,5.47
2018-01-17T07:32:32.887Z,5.43
2018-01-17T07:33:35.359Z,6.30
2018-01-17T07:34:37.837Z,6.40
2018-01-17T07:35:40.328Z,6.47
2018-01-17T07:36:42.836Z,7.05
2018-01-17T07:37:45.339Z,6.15
2018-01-17T07:38:47.814Z,6.45
2018-01-17T07:39:50.329Z,7.12
2018-01-17T07:40:53.580Z,6.30
2018-01-17T07:41:56.055Z,6.87
2018-01-17T07:42:58.532Z,7.00
2018-01-17T07:44:01.043Z,6.28
2018-01-17T07:45:03.549Z,5.70
2018-01-17T07:46:06.080Z,5.40
2018-01-17T07:47:08.570Z,6.12
2018-01-17T07:48:11.802Z,5.10
2018-01-17T07:49:14.299Z,6.10
2018-01-17T07:50:17.552Z,5.68
2018-01-17T07:51:20.120Z,6.35
2018-01-17T07:52:22.625Z,6.18
2018-01-17T07:53:25.876Z,6.35
2018-01-17T07:54:28.360Z,6.05
2018-01-17T07:55:30.840Z,5.78
2018-01-17T07:56:33.378Z,5.78
2018-01-17T07:57:35.853Z,6.90
2018-01-17T07:58:38.376Z,6.05
2018-01-17T07:59:40.848Z,5.55
2018-01-17T08:00:44.110Z,5.87
2018-01-17T08:01:47.375Z,5.50
2018-01-17T08:02:49.864Z,6.07
2018-01-17T08:03:52.333Z,5.30
2018-01-17T08:04:54.810Z,5.30
2018-01-17T08:05:57.307Z,5.25
2018-01-17T08:06:59.809Z,5.28
2018-01-17T08:08:02.322Z,4.22
2018-01-17T08:09:04.809Z,5.15
2018-01-17T08:10:08.123Z,4.82
2018-01-17T08:11:10.600Z,4.35
2018-01-17T08:12:13.204Z,4.53
2018-01-17T08:13:15.700Z,4.20
2018-01-17T08:14:18.263Z,4.78
2018-01-17T08:15:20.747Z,5.28
2018-01-17T08:16:23.989Z,4.53
2018-01-17T08:17:26.457Z,4.35
2018-01-17T08:18:28.957Z,4.60
2018-01-17T08:19:31.443Z,4.97
2018-01-17T08:20:34.695Z,4.40
2018-01-17T08:21:37.188Z,4.53
2018-01-17T08:22:39.686Z,4.30
2018-01-17T08:23:42.175Z,4.32
2018-01-17T08:24:44.679Z,3.90
2018-01-17T08:25:47.165Z,4.30
2018-01-17T08:26:49.640Z,3.65
2018-01-17T08:27:52.114Z,2.80
2018-01-17T08:28:54.605Z,3.15
2018-01-17T08:29:57.839Z,3.30
2018-01-17T08:31:00.324Z,3.10
2018-01-17T08:32:02.865Z,3.22
2018-01-17T08:33:05.354Z,3.22
2018-01-17T08:34:07.835Z,3.20
2018-01-17T08:35:10.389Z,3.60
2018-01-17T08:36:13.785Z,2.72
2018-01-17T08:37:17.024Z,3.05
2018-01-17T08:38:19.536Z,3.75
2018-01-17T08:39:22.013Z,3.85
2018-01-17T08:40:25.166Z,3.80
2018-01-17T08:41:27.652Z,3.72
2018-01-17T08:42:30.134Z,3.70
2018-01-17T08:43:32.596Z,3.95
2018-01-17T08:44:35.120Z,3.97
2018-01-17T08:45:37.623Z,3.80
2018-01-17T08:46:40.107Z,3.85
2018-01-17T08:47:42.667Z,3.35
2018-01-17T08:48:45.137Z,3.78
2018-01-17T08:49:47.626Z,4.30
2018-01-17T08:50:50.118Z,3.50
2018-01-17T08:51:52.594Z,3.30
2018-01-17T08:52:55.111Z,4.05
2018-01-17T08:53:57.654Z,3.60
2018-01-17T08:55:00.147Z,3.42
2018-01-17T08:56:04.316Z,4.00
2018-01-17T08:57:07.357Z,4.15
2018-01-17T08:58:10.046Z,3.87
2018-01-17T08:59:14.418Z,3.83
2018-01-17T09:00:16.960Z,3.78
2018-01-17T09:01:19.495Z,4.50
2018-01-17T09:02:21.965Z,3.97
2018-01-17T09:03:24.437Z,4.55
2018-01-17T09:04:29.326Z,4.32
2018-01-17T09:05:32.566Z,4.70
2018-01-17T09:06:35.106Z,4.60
2018-01-17T09:07:37.584Z,4.28
2018-01-17T09:08:40.085Z,3.90
2018-01-17T09:09:42.558Z,4.55
2018-01-17T09:10:45.060Z,3.87
2018-01-17T09:11:47.540Z,3.72
2018-01-17T09:12:50.064Z,4.12
2018-01-17T09:13:52.712Z,3.72
2018-01-17T09:14:55.190Z,4.10
2018-01-17T09:15:58.444Z,3.78
2018-01-17T09:17:01.696Z,3.10
2018-01-17T09:18:04.195Z,3.90
2018-01-17T09:19:06.737Z,4.75
2018-01-17T09:20:11.098Z,3.92
2018-01-17T09:21:14.462Z,3.35
2018-01-17T09:22:16.931Z,3.47
2018-01-17T09:23:20.458Z,3.30
2018-01-17T09:24:22.929Z,3.55
2018-01-17T09:25:25.421Z,2.95
2018-01-17T09:26:28.040Z,2.80
2018-01-17T09:27:30.522Z,2.62
2018-01-17T09:28:33.884Z,3.37
2018-01-17T09:29:36.372Z,2.92
2018-01-17T09:30:38.848Z,2.90
2018-01-17T09:31:41.327Z,3.10
2018-01-17T09:32:44.612Z,2.65
2018-01-17T09:33:47.102Z,3.12
2018-01-17T09:34:49.602Z,3.10
2018-01-17T09:35:52.856Z,3.35
2018-01-17T09:36:55.534Z,2.80
2018-01-17T09:37:58.048Z,3.42
2018-01-17T09:52:00.628Z,3.00
2018-01-17T09:53:03.161Z,2.25
2018-01-17T09:54:07.648Z,2.60
2018-01-17T09:55:11.373Z,3.50
2018-01-17T09:56:14.070Z,2.35
2018-01-17T09:57:16.576Z,2.95
2018-01-17T09:58:29.730Z,2.78
2018-01-17T09:59:32.282Z,2.55
2018-01-17T10:00:35.612Z,2.90
2018-01-17T10:01:39.029Z,2.40
2018-01-17T10:02:41.579Z,2.60
2018-01-17T10:03:44.095Z,2.90
2018-01-17T10:04:46.603Z,2.05
2018-01-17T10:05:49.426Z,2.70
2018-01-17T10:06:51.924Z,2.62
2018-01-17T10:07:59.037Z,2.42
2018-01-17T10:09:01.570Z,2.33
2018-01-17T10:10:04.099Z,2.58
2018-01-17T10:11:06.633Z,2.17
2018-01-17T10:12:09.148Z,2.20
2018-01-17T10:13:12.735Z,2.50
2018-01-17T10:14:15.299Z,2.20
2018-01-17T10:15:17.795Z,3.08
2018-01-17T10:16:21.097Z,2.67
2018-01-17T10:17:23.669Z,2.65
2018-01-17T10:18:26.252Z,2.53
2018-01-17T10:20:36.301Z,2.78
2018-01-17T10:21:38.988Z,2.50
2018-01-17T10:22:41.497Z,2.42
2018-01-17T10:23:44.033Z,2.53
2018-01-17T10:24:46.513Z,3.08
2018-01-17T10:25:49.762Z,2.70
2018-01-17T10:26:52.280Z,2.25
2018-01-17T10:27:55.531Z,2.70
2018-01-17T10:28:58.039Z,2.80
2018-01-17T10:30:00.534Z,2.37
2018-01-17T10:31:03.795Z,3.00
2018-01-17T10:32:06.295Z,3.00
2018-01-17T10:33:08.779Z,2.42
2018-01-17T10:34:11.371Z,3.00
2018-01-17T10:35:14.643Z,2.85
2018-01-17T10:36:17.136Z,2.97
2018-01-17T10:37:19.680Z,3.03
2018-01-17T10:38:22.214Z,3.00
2018-01-17T10:39:24.720Z,2.60
2018-01-17T10:40:27.230Z,3.17
2018-01-17T10:41:30.497Z,2.58
2018-01-17T10:42:33.008Z,2.25
2018-01-17T10:43:35.507Z,4.70
2018-01-17T10:44:37.987Z,3.30
2018-01-17T10:45:40.474Z,2.85
2018-01-17T10:46:42.988Z,2.60
2018-01-17T10:47:45.495Z,3.40
2018-01-17T10:48:47.993Z,4.07
2018-01-17T10:49:50.494Z,3.30
2018-01-17T10:50:53.738Z,3.35
2018-01-17T10:51:56.276Z,3.15
2018-01-17T10:52:58.797Z,3.35
2018-01-17T10:54:02.241Z,3.70
2018-01-17T10:55:04.730Z,3.83
2018-01-17T10:56:07.234Z,2.75
2018-01-17T10:57:09.722Z,3.42
2018-01-17T10:58:12.407Z,4.00
2018-01-17T10:59:14.911Z,3.25
2018-01-17T11:00:17.408Z,3.22
2018-01-17T11:01:19.903Z,3.90
2018-01-17T11:02:23.160Z,3.53
2018-01-17T11:03:25.776Z,3.65
2018-01-17T11:04:28.252Z,3.35
2018-01-17T11:05:30.742Z,4.50
2018-01-17T11:06:33.254Z,3.70
2018-01-17T11:07:35.755Z,3.67
2018-01-17T11:08:38.288Z,5.35
2018-01-17T11:09:40.772Z,3.70
2018-01-17T11:10:44.026Z,4.03
2018-01-17T11:11:46.536Z,3.30
2018-01-17T11:12:49.803Z,3.87
2018-01-17T11:13:52.416Z,3.92
2018-01-17T11:14:54.925Z,3.78
2018-01-17T11:15:57.438Z,3.37
2018-01-17T13:17:39.972Z,3.53
2018-01-17T13:18:42.549Z,2.45
2018-01-17T13:19:45.019Z,3.22
2018-01-17T13:20:47.521Z,2.80
2018-01-17T13:21:50.059Z,3.25
2018-01-17T13:22:52.528Z,3.37
2018-01-17T13:23:55.041Z,2.70
2018-01-17T13:24:57.581Z,3.00
2018-01-17T13:26:00.072Z,2.83
2018-01-17T13:27:06.568Z,2.90
2018-01-17T13:28:09.051Z,2.85
2018-01-17T13:29:13.615Z,2.20
2018-01-17T13:30:16.101Z,2.85
2018-01-17T13:31:19.351Z,3.40
2018-01-17T13:32:21.821Z,3.70
2018-01-17T13:33:24.314Z,3.00
2018-01-17T13:34:27.575Z,3.00
2018-01-17T13:35:30.099Z,2.87
2018-01-17T13:36:33.364Z,2.62
2018-01-17T13:37:43.041Z,2.45
2018-01-17T13:38:46.299Z,3.58
2018-01-17T13:39:50.243Z,2.55
2018-01-17T13:40:52.778Z,1.90
2018-01-17T13:41:55.264Z,2.60
2018-01-17T13:42:57.792Z,2.30
2018-01-17T13:44:00.307Z,2.25
2018-01-17T13:45:03.777Z,2.37
2018-01-17T13:46:07.039Z,2.42
2018-01-17T13:47:14.624Z,2.00
2018-01-17T13:48:17.345Z,2.10
2018-01-17T13:49:20.813Z,2.25
2018-01-17T13:50:23.332Z,2.45
2018-01-17T13:51:27.393Z,2.60
2018-01-17T13:52:30.136Z,2.42
2018-01-17T13:53:33.984Z,2.10
2018-01-17T13:54:36.516Z,2.10
2018-01-17T13:55:39.021Z,1.85
2018-01-17T13:56:45.142Z,2.00
2018-01-17T13:57:48.391Z,1.75
2018-01-17T13:58:51.624Z,1.70
2018-01-17T13:59:54.106Z,1.40
2018-01-17T14:00:57.367Z,1.50
2018-01-17T14:01:59.858Z,1.55
2018-01-17T14:03:02.329Z,1.92
2018-01-17T14:04:04.812Z,1.52
2018-01-17T14:05:07.304Z,1.80
2018-01-17T14:06:09.986Z,1.90
2018-01-17T14:07:13.339Z,1.40
2018-01-17T14:08:17.475Z,2.25
2018-01-17T14:25:30.266Z,1.80
2018-01-17T14:26:34.958Z,1.90
2018-01-17T14:27:37.438Z,2.00
2018-01-17T14:28:39.920Z,2.00
2018-01-17T14:29:42.431Z,2.33
2018-01-17T14:30:44.943Z,1.83
2018-01-17T14:31:47.420Z,1.75
2018-01-17T14:32:49.964Z,2.30
2018-01-17T14:33:52.465Z,2.12
2018-01-17T14:34:59.912Z,2.05
2018-01-17T14:36:03.163Z,2.00
2018-01-17T14:37:05.645Z,1.87
2018-01-17T14:38:08.308Z,2.30
2018-01-17T14:39:11.048Z,1.60
2018-01-17T14:40:13.687Z,2.05
2018-01-17T14:41:16.165Z,2.03
2018-01-17T14:42:18.647Z,2.25
2018-01-17T14:43:21.136Z,2.78
2018-01-17T14:44:24.566Z,1.90
2018-01-17T14:45:28.052Z,2.60
2018-01-17T14:53:40.924Z,3.25
2018-01-17T14:54:43.434Z,2.35
2018-01-17T14:55:45.933Z,2.35
2018-01-17T14:56:49.254Z,2.78
2018-01-17T14:57:51.754Z,3.03
2018-01-17T14:58:54.283Z,2.97
2018-01-17T14:59:57.559Z,3.03
2018-01-17T15:01:00.849Z,2.40
2018-01-17T15:02:06.858Z,3.03
2018-01-17T15:03:09.937Z,2.83
2018-01-17T15:04:12.712Z,2.20
2018-01-17T15:05:15.212Z,3.25
2018-01-17T15:06:17.792Z,3.22
2018-01-17T15:07:20.964Z,3.15
2018-01-17T15:08:23.458Z,3.08
2018-01-17T15:09:25.956Z,2.30
2018-01-17T15:10:28.456Z,1.83
2018-01-17T15:11:31.000Z,3.28
2018-01-17T15:12:33.517Z,1.70
2018-01-17T15:13:36.002Z,2.58
2018-01-17T15:14:44.792Z,2.40
2018-01-17T15:15:47.289Z,2.55
2018-01-17T15:16:49.858Z,2.72
2018-01-17T15:17:52.350Z,2.55
2018-01-17T15:18:54.847Z,3.08
2018-01-17T15:19:58.144Z,3.53
2018-01-17T15:21:00.718Z,3.08
2018-01-17T15:22:04.011Z,3.55
2018-01-17T15:23:07.291Z,3.35
2018-01-17T15:24:09.900Z,3.00
2018-01-17T15:25:17.199Z,2.58
2018-01-17T15:26:19.766Z,3.00
2018-01-17T15:27:23.080Z,3.00
2018-01-17T15:28:25.585Z,3.03
2018-01-17T15:29:28.097Z,3.20
2018-01-17T15:30:30.607Z,2.28
2018-01-17T15:31:33.188Z,3.20
2018-01-17T15:32:35.772Z,2.67
2018-01-17T15:33:39.880Z,3.05
2018-01-17T15:34:42.418Z,3.65
2018-01-17T15:35:44.976Z,3.15
2018-01-17T15:36:50.928Z,3.17
2018-01-17T15:37:53.447Z,3.15
2018-01-17T15:38:55.952Z,2.62
2018-01-17T15:39:58.456Z,3.20
2018-01-17T15:41:00.962Z,2.72
2018-01-17T15:42:03.496Z,2.40
2018-01-17T15:43:06.016Z,2.12
2018-01-17T15:45:17.540Z,2.87
2018-01-17T15:46:24.144Z,2.05
2018-01-17T15:47:26.653Z,2.45
2018-01-17T15:48:29.213Z,2.30
2018-01-17T15:49:32.008Z,2.30
2018-01-17T15:50:34.532Z,2.58
2018-01-17T15:51:37.130Z,2.65
2018-01-17T15:52:40.493Z,2.80
2018-01-17T15:53:43.840Z,2.83
2018-01-17T15:54:47.124Z,2.55
2018-01-17T15:55:50.391Z,2.80
2018-01-17T15:56:57.856Z,2.33
2018-01-17T15:58:00.413Z,2.47
2018-01-17T15:59:02.951Z,2.42
2018-01-17T16:00:05.511Z,3.28
2018-01-17T16:01:08.029Z,2.90
2018-01-17T16:02:10.757Z,2.35
2018-01-17T16:03:13.345Z,2.55
2018-01-17T16:04:15.868Z,2.40
2018-01-17T16:05:18.435Z,2.62
2018-01-17T16:06:20.957Z,2.40
2018-01-17T16:07:23.455Z,2.70
2018-01-17T16:08:28.880Z,3.12
2018-01-17T16:09:34.444Z,2.85
2018-01-17T16:10:36.995Z,2.60
2018-01-17T16:11:39.523Z,2.20
2018-01-17T16:12:42.061Z,2.22
2018-01-17T16:13:45.335Z,2.65
2018-01-17T16:14:49.374Z,2.20
2018-01-17T16:15:51.899Z,2.87
2018-01-17T16:16:54.417Z,3.30
2018-01-17T16:17:57.736Z,3.00
2018-01-17T16:19:00.307Z,2.50
2018-01-17T16:20:05.958Z,2.15
2018-01-17T16:21:09.361Z,2.72
2018-01-17T16:22:12.072Z,2.50
2018-01-17T16:23:14.596Z,2.90
2018-01-17T16:24:17.879Z,3.20
2018-01-17T16:25:20.483Z,3.05
2018-01-17T16:26:23.167Z,3.67
2018-01-17T16:27:25.679Z,3.10
2018-01-17T16:28:28.211Z,3.30
2018-01-17T16:29:31.495Z,3.15
2018-01-17T16:30:34.054Z,3.67
2018-01-17T16:31:39.236Z,3.08
2018-01-17T16:32:41.775Z,2.92
2018-01-17T16:34:20.427Z,3.12
2018-01-17T16:35:23.716Z,2.70